Data for 05/02/2013

Time Sea-Level Adjusted Pressure Absolute Pressure Temperature Relative Humidity Dew Point   
(mb) (inHg) (mb) (inHg) (C) (F) (%) (C) (F)
00:05 1034 30.53 863 25.48 -0.8 30.6 51 -9.8 14.4
00:10 1034 30.53 863 25.48 -0.7 30.7 51 -9.5 14.8
00:15 1034 30.53 863 25.48 -0.9 30.3 53 -9.4 15.2
00:20 1034 30.53 863 25.48 -1.2 29.9 54 -9.4 15.1
00:25 1034 30.53 863 25.48 -1.3 29.7 54 -9.4 15
00:30 1034 30.53 863 25.48 -1.3 29.7 53 -9.6 14.8
00:35 1034 30.53 863 25.48 -1 30.2 52 -9.6 14.8
00:40 1034 30.53 863 25.48 -1 30.2 53 -9.5 15
00:45 1034 30.53 863 25.48 -1.1 29.9 53 -9.5 14.9
00:50 1034 30.53 863 25.48 -1.2 29.8 54 -9.4 15.1
00:55 1034 30.53 863 25.48 -1.3 29.8 54 -9.5 15
01:00 1034 30.53 863 25.48 -1.2 29.9 53 -9.5 14.9
01:05 1034 30.53 863 25.48 -1.3 29.6 54 -9.6 14.8
01:10 1034 30.53 863 25.48 -1.3 29.6 53 -9.7 14.6
01:15 1034 30.53 863 25.48 -1.3 29.7 54 -9.5 14.8
01:20 1034 30.53 863 25.48 -1.5 29.3 54 -9.7 14.6
01:25 1034 30.53 863 25.48 -1.4 29.5 53 -9.8 14.4
01:30 1034 30.53 863 25.48 -1.3 29.6 52 -9.8 14.3
01:35 1034 30.53 863 25.48 -1.2 29.9 52 -9.9 14.2
01:40 1034 30.53 863 25.48 -1.1 30 52 -9.7 14.5
01:45 1034 30.53 863 25.48 -1.3 29.7 53 -9.7 14.6
01:50 1034 30.53 863 25.48 -1.3 29.7 52 -9.9 14.1
01:55 1034 30.53 863 25.48 -1.2 29.9 52 -9.9 14.2
02:00 1034 30.53 863 25.48 -1.1 30 51 -9.9 14.2
02:05 1034 30.53 863 25.48 -1.1 30.1 50 -10.1 13.7
02:10 1034 30.53 863 25.48 -1 30.2 51 -10 14.1
02:15 1034 30.53 863 25.48 -1.1 30.1 52 -9.8 14.4
02:20 1034 30.53 863 25.48 -1.2 29.8 51 -10 14
02:25 1034 30.53 863 25.48 -1.2 29.9 51 -10 14.1
02:30 1034 30.53 863 25.48 -1 30.2 50 -10.2 13.6
02:35 1034 30.53 863 25.48 -0.8 30.6 49 -10.3 13.5
02:40 1034 30.53 863 25.48 -0.5 31 48 -10.2 13.6
02:45 1034 30.53 863 25.48 -0.8 30.6 50 -9.9 14.2
02:50 1034 30.53 864 25.51 -1.2 29.9 51 -10.2 13.7
02:55 1034 30.53 864 25.51 -1 30.2 51 -9.9 14.1
03:00 1034 30.53 864 25.51 -1.3 29.7 51 -10.1 13.8
03:05 1034 30.53 864 25.51 -1 30.1 50 -10.1 13.8
03:10 1034 30.53 864 25.51 -1 30.1 51 -9.9 14.1
03:15 1034 30.53 864 25.51 -1.3 29.6 53 -9.8 14.4
03:20 1034 30.53 864 25.51 -1.9 28.7 55 -9.8 14.4
03:25 1034 30.53 864 25.51 -2 28.5 53 -10.2 13.6
03:30 1034 30.53 864 25.51 -1.4 29.5 51 -10.4 13.3
03:35 1034 30.53 864 25.51 -1 30.2 50 -10.1 13.8
03:40 1034 30.53 864 25.51 -1.4 29.6 52 -10 13.9
03:45 1034 30.53 864 25.51 -1.5 29.3 53 -9.9 14.1
03:50 1034 30.53 864 25.51 -1.5 29.3 52 -10.3 13.5
03:55 1034 30.53 864 25.51 -1.4 29.5 52 -10 13.9
04:00 1034 30.53 864 25.51 -1.8 28.8 54 -9.9 14.2
04:05 1034 30.53 864 25.51 -1.8 28.8 54 -10 14
04:10 1034 30.53 864 25.51 -2.1 28.3 56 -9.8 14.4
04:15 1034 30.53 864 25.51 -2.1 28.2 55 -10 14.1
04:20 1034 30.53 864 25.51 -2.1 28.2 55 -10 14
04:25 1034 30.53 864 25.51 -2.1 28.2 55 -9.9 14.1
04:30 1034 30.53 864 25.51 -2.2 28.1 56 -9.9 14.2
04:35 1034 30.53 864 25.51 -2 28.5 53 -10.4 13.3
04:40 1034 30.53 864 25.51 -1.4 29.4 51 -10.2 13.6
04:45 1034 30.53 864 25.51 -1.4 29.5 52 -10 13.9
04:50 1035 30.56 864 25.51 -1.6 29.1 54 -9.8 14.3
04:55 1035 30.56 864 25.51 -1.7 28.9 54 -9.9 14.2
05:00 1035 30.56 864 25.51 -1.9 28.6 55 -9.7 14.5
05:05 1035 30.56 864 25.51 -2.3 27.9 55 -10 14
05:10 1035 30.56 864 25.51 -2.2 28 55 -10 14
05:15 1035 30.56 864 25.51 -2.3 27.9 56 -9.9 14.1
05:20 1035 30.56 864 25.51 -2.2 28 56 -9.9 14.3
05:25 1035 30.56 864 25.51 -2.2 28 56 -9.9 14.2
05:30 1035 30.56 864 25.51 -2 28.4 55 -9.9 14.1
05:35 1035 30.56 864 25.51 -2 28.5 55 -9.8 14.3
05:40 1035 30.56 864 25.51 -1.9 28.5 55 -9.9 14.2
05:45 1035 30.56 864 25.51 -1.8 28.7 54 -9.9 14.1
05:50 1035 30.56 864 25.51 -1.7 29 53 -10 14.1
05:55 1035 30.56 864 25.51 -1.5 29.4 52 -10.1 13.9
06:00 1035 30.56 864 25.51 -1.2 29.9 51 -10.2 13.6
06:05 1035 30.56 864 25.51 -0.8 30.6 50 -10 13.9
06:10 1035 30.56 864 25.51 -0.7 30.7 50 -9.9 14.2
06:15 1035 30.56 864 25.51 -0.8 30.5 51 -9.8 14.3
06:20 1035 30.56 864 25.51 -0.8 30.6 51 -9.7 14.5
06:25 1035 30.56 864 25.51 -0.5 31.1 50 -9.7 14.6
06:30 1035 30.56 864 25.51 -0.2 31.6 49 -9.6 14.7
06:35 1035 30.56 864 25.51 0.1 32.2 48 -9.5 14.9
06:40 1035 30.56 864 25.51 0.3 32.5 48 -9.5 14.9
06:45 1035 30.56 864 25.51 0.5 32.8 47 -9.5 14.9
06:50 1035 30.56 864 25.51 1.2 34.2 44 -9.6 14.7
06:55 1035 30.56 864 25.51 1.7 35 44 -9.4 15
07:00 1035 30.56 864 25.51 1.6 34.9 45 -9.1 15.6
07:05 1035 30.56 864 25.51 2 35.6 44 -9.1 15.5
07:10 1035 30.56 864 25.51 2.6 36.6 43 -8.9 16
07:15 1034 30.53 864 25.51 3.1 37.6 39 -9.5 14.9
07:20 1034 30.53 864 25.51 3.2 37.7 39 -9.5 14.9
07:25 1034 30.53 864 25.51 3.2 37.8 39 -9.3 15.2
07:30 1034 30.53 864 25.51 3.7 38.7 38 -9.3 15.2
07:35 1034 30.53 864 25.51 3.8 38.8 38 -9.1 15.6
07:40 1034 30.53 864 25.51 4.2 39.6 36 -9.6 14.8
07:45 1034 30.53 864 25.51 4.6 40.3 34 -10 14.1
07:50 1034 30.53 863 25.48 4.7 40.4 34 -10 14.1
07:55 1034 30.53 863 25.48 4.2 39.6 35 -9.8 14.3
08:00 1034 30.53 863 25.48 4.4 40 33 -10.3 13.5
08:05 1034 30.53 863 25.48 4.7 40.5 33 -10.3 13.4
08:10 1034 30.53 863 25.48 5.2 41.4 30 -10.8 12.6
08:15 1034 30.53 863 25.48 5 41 31 -10.8 12.6
08:20 1034 30.53 863 25.48 5.2 41.3 29 -11.5 11.3
08:25 1034 30.53 863 25.48 5.8 42.4 28 -11.5 11.2
08:30 1034 30.53 863 25.48 6.1 42.9 29 -10.9 12.4
08:35 1034 30.53 863 25.48 5.6 42.1 29 -10.9 12.4
08:40 1034 30.53 863 25.48 6.1 43 27 -11.4 11.6
08:45 1034 30.53 863 25.48 7.2 44.9 25 -11.5 11.4
08:50 1034 30.53 863 25.48 7.4 45.4 26 -10.9 12.3
08:55 1034 30.53 863 25.48 7 44.6 26 -11.2 11.9
09:00 1034 30.53 863 25.48 7.5 45.6 26 -10.9 12.3
09:05 1034 30.53 863 25.48 7.9 46.1 24 -11.5 11.4
09:10 1034 30.53 863 25.48 8.2 46.8 24 -11.3 11.6
09:15 1034 30.53 863 25.48 8.3 46.9 24 -11 12.1
09:20 1034 30.53 863 25.48 8.2 46.8 25 -10.8 12.6
09:25 1034 30.53 863 25.48 7.8 46 26 -10.6 13
09:30 1033 30.5 863 25.48 7.8 46 25 -11.3 11.7
09:35 1033 30.5 863 25.48 8.3 46.9 23 -11.4 11.4
09:40 1033 30.5 863 25.48 9.2 48.5 22 -11.3 11.7
09:45 1033 30.5 863 25.48 9.8 49.6 20 -12 10.5
09:50 1033 30.5 863 25.48 10 49.9 20 -11.9 10.5
09:55 1033 30.5 862 25.45 9.7 49.4 22 -11.3 11.7
10:00 1033 30.5 862 25.45 9.7 49.5 20 -12 10.3
10:05 1033 30.5 862 25.45 9.9 49.8 21 -11.3 11.6
10:10 1033 30.5 862 25.45 9.8 49.7 20 -12.1 10.3
10:15 1033 30.5 862 25.45 9.8 49.6 21 -11.5 11.3
10:20 1033 30.5 862 25.45 10.1 50.2 21 -11.2 11.8
10:25 1033 30.5 862 25.45 10.1 50.2 20 -11.8 10.7
10:30 1033 30.5 862 25.45 10.4 50.8 20 -11.8 10.8
10:35 1033 30.5 862 25.45 10.9 51.5 19 -12.2 10
10:40 1033 30.5 862 25.45 11.7 53.1 17 -12.3 9.8
10:45 1033 30.5 862 25.45 11.5 52.8 18 -12 10.4
10:50 1033 30.5 862 25.45 11.4 52.6 17 -12.9 8.8
10:55 1033 30.5 862 25.45 10.8 51.4 17 -13.2 8.3
11:00 1032 30.47 862 25.45 10.3 50.5 19 -12.6 9.3
11:05 1032 30.47 861 25.43 11.4 52.5 16 -13.5 7.6
11:10 1032 30.47 861 25.43 11.5 52.7 18 -11.8 10.8
11:15 1032 30.47 861 25.43 11.2 52.1 17 -13.3 8
11:20 1032 30.47 861 25.43 11.7 53.1 16 -13.3 8
11:25 1032 30.47 861 25.43 11.9 53.4 16 -13.1 8.5
11:30 1032 30.47 861 25.43 11.4 52.4 15 -14 6.7
11:35 1032 30.47 861 25.43 12 53.6 15 -13.8 7.2
11:40 1032 30.47 861 25.43 11.7 53.1 15 -14.1 6.6
11:45 1032 30.47 861 25.43 11.1 52 16 -13.4 7.8
11:50 1032 30.47 861 25.43 11.2 52.1 16 -14.1 6.6
11:55 1032 30.47 861 25.43 12.3 54.1 15 -13.7 7.3
12:00 1031 30.45 861 25.43 12.6 54.7 15 -13.1 8.5
12:05 1031 30.45 861 25.43 12.7 54.9 14 -13.8 7.1
12:10 1031 30.45 860 25.4 12.7 54.8 14 -13.9 7
12:15 1031 30.45 860 25.4 13.2 55.8 14 -13.9 6.9
12:20 1031 30.45 860 25.4 13.7 56.7 14 -13.6 7.5
12:25 1031 30.45 860 25.4 14 57.2 13 -14 6.7
12:30 1031 30.45 860 25.4 13.5 56.2 14 -14 6.8
12:35 1031 30.45 860 25.4 12.8 55 14 -14.3 6.3
12:40 1031 30.45 860 25.4 13.7 56.6 14 -13.3 8.1
12:45 1031 30.45 860 25.4 14.2 57.6 13 -13.5 7.7
12:50 1031 30.45 860 25.4 15.1 59.2 12 -13.9 6.9
12:55 1031 30.45 860 25.4 14.5 58 14 -13 8.7
13:00 1030 30.42 860 25.4 13.6 56.4 13 -14.1 6.6
13:05 1030 30.42 860 25.4 13.4 56.1 13 -14.1 6.6
13:10 1030 30.42 859 25.37 13.7 56.6 13 -14.1 6.7
13:15 1030 30.42 859 25.37 15 58.9 13 -13.5 7.7
13:20 1030 30.42 859 25.37 15.5 59.9 13 -12.6 9.3
13:25 1030 30.42 859 25.37 14.7 58.5 12 -14 6.9
13:30 1030 30.42 859 25.37 14.4 58 14 -13.1 8.4
13:35 1030 30.42 859 25.37 15 59 13 -13.4 7.9
13:40 1030 30.42 859 25.37 14.6 58.2 13 -13.6 7.6
13:45 1030 30.42 859 25.37 15.1 59.2 13 -12.9 8.7
13:50 1030 30.42 859 25.37 14.9 58.8 14 -12.2 10
13:55 1030 30.42 859 25.37 15.1 59.2 13 -13 8.6
14:00 1030 30.42 859 25.37 15.5 59.8 13 -12.6 9.3
14:05 1030 30.42 859 25.37 15.1 59.2 14 -12 10.4
14:10 1030 30.42 859 25.37 14.9 58.9 14 -12.7 9.1
14:15 1029 30.39 859 25.37 15.5 59.8 13 -12.6 9.3
14:20 1029 30.39 859 25.37 15.4 59.8 13 -12.9 8.7
14:25 1029 30.39 858 25.34 14.8 58.6 14 -12.6 9.3
14:30 1029 30.39 858 25.34 14.9 58.9 14 -12.6 9.2
14:35 1029 30.39 858 25.34 16.1 61 13 -12.4 9.7
14:40 1029 30.39 858 25.34 15.3 59.5 14 -12.5 9.6
14:45 1029 30.39 858 25.34 16.1 61 13 -12.2 10.1
14:50 1029 30.39 858 25.34 16.4 61.5 13 -12.4 9.7
14:55 1029 30.39 858 25.34 15.9 60.5 13 -12.4 9.7
15:00 1029 30.39 858 25.34 16.3 61.4 13 -12.4 9.7
15:05 1029 30.39 858 25.34 16.9 62.3 12 -12.4 9.7
15:10 1029 30.39 858 25.34 16.9 62.5 12 -12.5 9.4
15:15 1028 30.36 858 25.34 16.8 62.2 13 -12 10.4
15:20 1028 30.36 858 25.34 16.8 62.2 13 -12.1 10.2
15:25 1028 30.36 857 25.31 17.3 63.1 12 -12.4 9.6
15:30 1028 30.36 857 25.31 17.1 62.8 12 -12.2 10.1
15:35 1028 30.36 857 25.31 17.3 63.1 12 -12.4 9.7
15:40 1028 30.36 857 25.31 15.6 60.1 13 -12.8 8.9
15:45 1028 30.36 857 25.31 16.4 61.4 12 -13.2 8.2
15:50 1028 30.36 857 25.31 17.1 62.8 12 -12.6 9.4
15:55 1028 30.36 857 25.31 17.3 63.2 12 -12.3 9.9
16:00 1028 30.36 857 25.31 16.6 61.9 12 -12.5 9.5
16:05 1027 30.33 857 25.31 16.3 61.3 12 -12.8 9
16:10 1027 30.33 857 25.31 15.9 60.5 13 -12.8 9
16:15 1027 30.33 857 25.31 16.7 62 12 -13.1 8.4
16:20 1027 30.33 857 25.31 16.8 62.3 12 -12.8 9
16:25 1027 30.33 857 25.31 16.4 61.5 13 -12.5 9.6
16:30 1027 30.33 857 25.31 16.8 62.2 13 -11.7 10.9
16:35 1027 30.33 856 25.28 15.9 60.7 13 -12.2 10.1
16:40 1027 30.33 856 25.28 16.4 61.4 13 -12 10.4
16:45 1027 30.33 856 25.28 17.4 63.3 12 -11.9 10.7
16:50 1027 30.33 856 25.28 18.1 64.5 11 -12.5 9.5
16:55 1027 30.33 856 25.28 17.1 62.7 12 -12.3 9.8
17:00 1027 30.33 856 25.28 16.5 61.7 13 -12.2 10
17:05 1027 30.33 856 25.28 16.4 61.5 12 -12.9 8.7
17:10 1027 30.33 856 25.28 16.8 62.2 13 -12.1 10.2
17:15 1027 30.33 856 25.28 16.4 61.6 13 -12.4 9.6
17:20 1027 30.33 856 25.28 15.9 60.7 12 -13.3 8.1
17:25 1027 30.33 856 25.28 16.1 60.9 12 -13.1 8.4
17:30 1027 30.33 856 25.28 15.8 60.5 13 -13 8.7
17:35 1026 30.3 856 25.28 16 60.7 12 -13.3 8
17:40 1026 30.3 856 25.28 16.1 60.9 12 -13 8.6
17:45 1026 30.3 856 25.28 16.6 61.9 12 -12.9 8.8
17:50 1026 30.3 856 25.28 15.9 60.5 13 -12.6 9.2
17:55 1026 30.3 856 25.28 15.9 60.6 12 -13.3 8.1
18:00 1026 30.3 855 25.25 15.5 60 13 -13 8.6
18:05 1026 30.3 855 25.25 15.4 59.8 13 -12.6 9.3
18:10 1026 30.3 855 25.25 15.5 59.9 13 -13 8.7
18:15 1026 30.3 855 25.25 15.8 60.4 12 -13.5 7.7
18:20 1026 30.3 855 25.25 15.6 60.1 13 -13.1 8.4
18:25 1026 30.3 855 25.25 15.5 59.9 13 -13.1 8.4
18:30 1026 30.3 855 25.25 15.5 59.8 14 -12 10.3
18:35 1026 30.3 855 25.25 15.5 59.9 13 -13.1 8.4
18:40 1026 30.3 855 25.25 15.2 59.4 13 -13 8.6
18:45 1026 30.3 855 25.25 15.1 59.2 13 -13.1 8.4
18:50 1026 30.3 855 25.25 15 59.1 13 -12.9 8.8
18:55 1026 30.3 855 25.25 14.9 58.8 15 -11.3 11.7
19:00 1026 30.3 855 25.25 14.9 58.9 13 -13.2 8.3
19:05 1026 30.3 855 25.25 14.8 58.6 13 -13.2 8.3
19:10 1026 30.3 855 25.25 14.6 58.3 14 -13 8.6
19:15 1026 30.3 855 25.25 14.4 57.9 13 -13.4 7.9
19:20 1026 30.3 855 25.25 14.3 57.8 14 -13.3 8.1
19:25 1026 30.3 855 25.25 14.3 57.7 13 -13.5 7.6
19:30 1026 30.3 855 25.25 14.2 57.6 14 -13.3 8
19:35 1026 30.3 855 25.25 14.1 57.4 14 -13.4 7.9
19:40 1026 30.3 855 25.25 14.1 57.3 14 -13.4 7.9
19:45 1026 30.3 855 25.25 14.1 57.3 14 -12.7 9.2
19:50 1026 30.3 855 25.25 13.4 56.2 18 -10.3 13.4
19:55 1026 30.3 855 25.25 12.9 55.2 19 -10.1 13.8
20:00 1026 30.3 855 25.25 12.3 54.2 21 -9.3 15.3
20:05 1026 30.3 855 25.25 11.6 52.9 21 -10 14.1
20:10 1026 30.3 855 25.25 11.3 52.3 21 -10.5 13
20:15 1026 30.3 855 25.25 11.1 52 21 -10.5 13.1
20:20 1026 30.3 855 25.25 10.8 51.5 22 -10.2 13.6
20:25 1026 30.3 855 25.25 10.4 50.7 23 -10 14
20:30 1026 30.3 855 25.25 10 50 23 -10.3 13.5
20:35 1026 30.3 855 25.25 9.7 49.5 23 -10.4 13.2
20:40 1026 30.3 855 25.25 9.6 49.3 24 -9.9 14.1
20:45 1026 30.3 855 25.25 9.1 48.5 24 -10.3 13.4
20:50 1026 30.3 855 25.25 9.1 48.3 24 -10.6 12.9
20:55 1026 30.3 855 25.25 9 48.2 24 -10.8 12.6
21:00 1026 30.3 855 25.25 9 48.2 23 -10.8 12.5
21:05 1026 30.3 855 25.25 9.1 48.3 23 -10.8 12.6
21:10 1026 30.3 855 25.25 9.1 48.4 23 -11.1 12.1
21:15 1026 30.3 855 25.25 9.1 48.4 24 -10.6 12.9
21:20 1026 30.3 855 25.25 8.9 47.9 24 -10.7 12.8
21:25 1026 30.3 855 25.25 8.5 47.2 25 -10.6 12.9
21:30 1026 30.3 855 25.25 8.3 46.9 26 -10.4 13.3
21:35 1026 30.3 855 25.25 8 46.4 26 -10.2 13.6
21:40 1026 30.3 855 25.25 7.7 45.9 26 -10.8 12.5
21:45 1026 30.3 855 25.25 8.5 47.4 24 -11 12.2
21:50 1025 30.27 855 25.25 8.7 47.7 25 -10 14
21:55 1025 30.27 855 25.25 8.4 47.2 26 -10.1 13.8
22:00 1025 30.27 855 25.25 8.2 46.8 27 -9.8 14.4
22:05 1025 30.27 855 25.25 8.2 46.7 27 -9.9 14.2
22:10 1025 30.27 855 25.25 8.6 47.5 25 -10.4 13.3
22:15 1025 30.27 855 25.25 9.1 48.3 24 -10.7 12.8
22:20 1025 30.27 855 25.25 9.4 49 23 -10.6 13
22:25 1026 30.3 855 25.25 9.4 48.9 25 -9.8 14.3
22:30 1026 30.3 855 25.25 8.5 47.3 27 -9.7 14.6
22:35 1026 30.3 855 25.25 7.9 46.3 26 -10.2 13.6
22:40 1026 30.3 855 25.25 7.9 46.2 27 -9.9 14.1
22:45 1026 30.3 855 25.25 7.6 45.7 27 -10.3 13.4
22:50 1026 30.3 855 25.25 8.2 46.8 24 -11 12.2
22:55 1026 30.3 855 25.25 9 48.2 24 -10.5 13.1
23:00 1026 30.3 855 25.25 8.8 47.9 25 -10.3 13.4
23:05 1026 30.3 855 25.25 8.6 47.4 25 -10.2 13.6
23:10 1026 30.3 855 25.25 8.2 46.7 26 -10.4 13.2
23:15 1026 30.3 855 25.25 8.2 46.7 25 -10.6 12.9
23:20 1026 30.3 855 25.25 8.2 46.7 26 -10.2 13.6
23:25 1026 30.3 855 25.25 8 46.4 26 -10.2 13.7
23:30 1026 30.3 855 25.25 8.2 46.7 26 -10.1 13.8
23:35 1026 30.3 855 25.25 8.3 46.9 25 -10.7 12.7
23:40 1026 30.3 855 25.25 8.5 47.2 24 -10.8 12.6
23:45 1026 30.3 855 25.25 8.5 47.4 26 -9.8 14.3
23:50 1026 30.3 855 25.25 8.3 46.9 27 -9.5 14.9
23:55 1026 30.3 855 25.25 7.8 46 27 -10.3 13.5
24:00 1026 30.3 855 25.25 7.9 46.2 25 -10.7 12.7